sensor_id;sensor_type;location;lat;lon;timestamp;P1;durP1;ratioP1;P2;durP2;ratioP2
76712;SDS011;65640;43.154;25.658;2023-03-23T00:00:37;28.42;;;18.85;;
76712;SDS011;65640;43.154;25.658;2023-03-23T00:03:02;27.63;;;18.90;;
76712;SDS011;65640;43.154;25.658;2023-03-23T00:05:28;25.10;;;17.92;;
76712;SDS011;65640;43.154;25.658;2023-03-23T00:07:54;26.92;;;18.42;;
76712;SDS011;65640;43.154;25.658;2023-03-23T00:10:20;26.90;;;18.00;;
76712;SDS011;65640;43.154;25.658;2023-03-23T00:12:46;28.30;;;18.48;;
76712;SDS011;65640;43.154;25.658;2023-03-23T00:15:14;31.25;;;18.35;;
76712;SDS011;65640;43.154;25.658;2023-03-23T00:17:41;30.65;;;18.67;;
76712;SDS011;65640;43.154;25.658;2023-03-23T00:20:09;33.47;;;19.00;;
76712;SDS011;65640;43.154;25.658;2023-03-23T00:22:36;33.65;;;19.77;;
76712;SDS011;65640;43.154;25.658;2023-03-23T00:25:06;32.22;;;19.38;;
76712;SDS011;65640;43.154;25.658;2023-03-23T00:27:33;31.65;;;19.25;;
76712;SDS011;65640;43.154;25.658;2023-03-23T00:29:59;33.35;;;18.08;;
76712;SDS011;65640;43.154;25.658;2023-03-23T00:32:25;30.13;;;19.02;;
76712;SDS011;65640;43.154;25.658;2023-03-23T00:34:54;31.60;;;17.92;;
76712;SDS011;65640;43.154;25.658;2023-03-23T00:37:20;36.88;;;20.48;;
76712;SDS011;65640;43.154;25.658;2023-03-23T00:39:46;34.78;;;19.20;;
76712;SDS011;65640;43.154;25.658;2023-03-23T00:42:12;36.28;;;18.67;;
76712;SDS011;65640;43.154;25.658;2023-03-23T00:44:39;30.48;;;17.75;;
76712;SDS011;65640;43.154;25.658;2023-03-23T00:47:05;34.05;;;18.35;;
76712;SDS011;65640;43.154;25.658;2023-03-23T00:49:32;40.33;;;21.33;;
76712;SDS011;65640;43.154;25.658;2023-03-23T00:52:00;39.70;;;19.65;;
76712;SDS011;65640;43.154;25.658;2023-03-23T00:54:27;37.85;;;19.40;;
76712;SDS011;65640;43.154;25.658;2023-03-23T00:56:53;34.97;;;17.48;;
76712;SDS011;65640;43.154;25.658;2023-03-23T00:59:18;36.38;;;20.90;;
76712;SDS011;65640;43.154;25.658;2023-03-23T01:01:44;39.13;;;21.02;;
76712;SDS011;65640;43.154;25.658;2023-03-23T01:04:10;43.38;;;20.70;;
76712;SDS011;65640;43.154;25.658;2023-03-23T01:06:38;38.15;;;19.90;;
76712;SDS011;65640;43.154;25.658;2023-03-23T01:09:06;37.92;;;19.85;;
76712;SDS011;65640;43.154;25.658;2023-03-23T01:11:32;34.67;;;17.50;;
76712;SDS011;65640;43.154;25.658;2023-03-23T01:13:58;39.67;;;19.02;;
76712;SDS011;65640;43.154;25.658;2023-03-23T01:16:25;38.35;;;20.98;;
76712;SDS011;65640;43.154;25.658;2023-03-23T01:18:51;32.40;;;18.30;;
76712;SDS011;65640;43.154;25.658;2023-03-23T01:21:17;37.10;;;19.05;;
76712;SDS011;65640;43.154;25.658;2023-03-23T01:23:44;37.83;;;20.48;;
76712;SDS011;65640;43.154;25.658;2023-03-23T01:26:10;33.53;;;18.77;;
76712;SDS011;65640;43.154;25.658;2023-03-23T01:28:37;38.10;;;19.00;;
76712;SDS011;65640;43.154;25.658;2023-03-23T01:31:04;38.15;;;18.98;;
76712;SDS011;65640;43.154;25.658;2023-03-23T01:33:32;34.80;;;18.88;;
76712;SDS011;65640;43.154;25.658;2023-03-23T01:35:58;34.85;;;17.63;;
76712;SDS011;65640;43.154;25.658;2023-03-23T01:38:27;33.60;;;18.20;;
76712;SDS011;65640;43.154;25.658;2023-03-23T01:40:53;34.80;;;17.20;;
76712;SDS011;65640;43.154;25.658;2023-03-23T01:43:18;29.55;;;17.88;;
76712;SDS011;65640;43.154;25.658;2023-03-23T01:45:44;29.42;;;16.73;;
76712;SDS011;65640;43.154;25.658;2023-03-23T01:50:58;26.83;;;16.63;;
76712;SDS011;65640;43.154;25.658;2023-03-23T01:53:33;26.35;;;15.45;;
76712;SDS011;65640;43.154;25.658;2023-03-23T01:56:02;27.10;;;15.65;;
76712;SDS011;65640;43.154;25.658;2023-03-23T01:58:30;22.95;;;14.65;;
76712;SDS011;65640;43.154;25.658;2023-03-23T02:00:58;21.92;;;13.98;;
76712;SDS011;65640;43.154;25.658;2023-03-23T02:03:28;26.25;;;14.68;;
76712;SDS011;65640;43.154;25.658;2023-03-23T02:05:55;22.25;;;13.55;;
76712;SDS011;65640;43.154;25.658;2023-03-23T02:08:23;19.83;;;13.45;;
76712;SDS011;65640;43.154;25.658;2023-03-23T02:10:53;21.20;;;13.27;;
76712;SDS011;65640;43.154;25.658;2023-03-23T02:13:18;38.22;;;20.25;;
76712;SDS011;65640;43.154;25.658;2023-03-23T02:15:54;21.73;;;13.50;;
76712;SDS011;65640;43.154;25.658;2023-03-23T02:21:04;24.08;;;13.43;;
76712;SDS011;65640;43.154;25.658;2023-03-23T02:31:53;19.63;;;11.65;;
76712;SDS011;65640;43.154;25.658;2023-03-23T02:34:47;15.80;;;11.23;;
76712;SDS011;65640;43.154;25.658;2023-03-23T02:37:35;15.45;;;10.13;;
76712;SDS011;65640;43.154;25.658;2023-03-23T02:40:09;17.13;;;9.90;;
76712;SDS011;65640;43.154;25.658;2023-03-23T02:42:41;12.80;;;9.38;;
76712;SDS011;65640;43.154;25.658;2023-03-23T02:45:09;13.55;;;10.32;;
76712;SDS011;65640;43.154;25.658;2023-03-23T02:47:37;13.10;;;10.15;;
76712;SDS011;65640;43.154;25.658;2023-03-23T02:50:03;13.95;;;10.02;;
76712;SDS011;65640;43.154;25.658;2023-03-23T02:52:32;13.25;;;9.30;;
76712;SDS011;65640;43.154;25.658;2023-03-23T02:55:00;12.10;;;9.57;;
76712;SDS011;65640;43.154;25.658;2023-03-23T03:02:28;10.15;;;8.63;;
76712;SDS011;65640;43.154;25.658;2023-03-23T03:05:02;12.43;;;9.05;;
76712;SDS011;65640;43.154;25.658;2023-03-23T03:07:54;15.25;;;10.20;;
76712;SDS011;65640;43.154;25.658;2023-03-23T03:10:25;11.93;;;9.65;;
76712;SDS011;65640;43.154;25.658;2023-03-23T03:13:02;11.15;;;9.00;;
76712;SDS011;65640;43.154;25.658;2023-03-23T03:20:59;9.25;;;8.10;;
76712;SDS011;65640;43.154;25.658;2023-03-23T03:23:32;10.48;;;8.13;;
76712;SDS011;65640;43.154;25.658;2023-03-23T03:25:59;11.82;;;7.93;;
76712;SDS011;65640;43.154;25.658;2023-03-23T03:28:29;10.30;;;8.27;;
76712;SDS011;65640;43.154;25.658;2023-03-23T03:30:57;8.93;;;8.07;;
76712;SDS011;65640;43.154;25.658;2023-03-23T03:33:26;10.38;;;8.02;;
76712;SDS011;65640;43.154;25.658;2023-03-23T03:35:56;9.43;;;8.35;;
76712;SDS011;65640;43.154;25.658;2023-03-23T03:38:23;10.73;;;9.10;;
76712;SDS011;65640;43.154;25.658;2023-03-23T03:40:50;9.40;;;8.45;;
76712;SDS011;65640;43.154;25.658;2023-03-23T03:43:15;9.85;;;8.73;;
76712;SDS011;65640;43.154;25.658;2023-03-23T03:45:41;11.48;;;9.38;;
76712;SDS011;65640;43.154;25.658;2023-03-23T03:48:07;12.93;;;9.55;;
76712;SDS011;65640;43.154;25.658;2023-03-23T03:50:32;11.55;;;9.70;;
76712;SDS011;65640;43.154;25.658;2023-03-23T03:52:58;9.88;;;8.80;;
76712;SDS011;65640;43.154;25.658;2023-03-23T03:55:24;13.70;;;8.38;;
76712;SDS011;65640;43.154;25.658;2023-03-23T03:57:49;14.05;;;9.40;;
76712;SDS011;65640;43.154;25.658;2023-03-23T04:00:14;13.48;;;9.00;;
76712;SDS011;65640;43.154;25.658;2023-03-23T04:02:44;12.63;;;9.82;;
76712;SDS011;65640;43.154;25.658;2023-03-23T04:05:12;11.90;;;9.13;;
76712;SDS011;65640;43.154;25.658;2023-03-23T04:07:38;11.38;;;9.00;;
76712;SDS011;65640;43.154;25.658;2023-03-23T04:10:07;12.70;;;9.68;;
76712;SDS011;65640;43.154;25.658;2023-03-23T04:12:34;11.35;;;9.45;;
76712;SDS011;65640;43.154;25.658;2023-03-23T04:19:52;11.50;;;8.90;;
76712;SDS011;65640;43.154;25.658;2023-03-23T04:22:18;13.32;;;10.30;;
76712;SDS011;65640;43.154;25.658;2023-03-23T04:24:43;15.60;;;10.43;;
76712;SDS011;65640;43.154;25.658;2023-03-23T04:27:09;16.25;;;11.88;;
76712;SDS011;65640;43.154;25.658;2023-03-23T04:29:37;16.95;;;11.20;;
76712;SDS011;65640;43.154;25.658;2023-03-23T04:32:03;16.92;;;11.75;;
76712;SDS011;65640;43.154;25.658;2023-03-23T04:34:28;14.00;;;10.98;;
76712;SDS011;65640;43.154;25.658;2023-03-23T04:36:57;14.68;;;11.35;;
76712;SDS011;65640;43.154;25.658;2023-03-23T04:39:23;15.48;;;12.27;;
76712;SDS011;65640;43.154;25.658;2023-03-23T04:41:49;20.02;;;12.50;;
76712;SDS011;65640;43.154;25.658;2023-03-23T04:44:14;20.90;;;14.50;;
76712;SDS011;65640;43.154;25.658;2023-03-23T04:46:42;16.95;;;12.82;;
76712;SDS011;65640;43.154;25.658;2023-03-23T04:49:10;18.67;;;11.93;;
76712;SDS011;65640;43.154;25.658;2023-03-23T04:51:35;19.15;;;12.32;;
76712;SDS011;65640;43.154;25.658;2023-03-23T04:54:01;17.05;;;12.52;;
76712;SDS011;65640;43.154;25.658;2023-03-23T04:56:26;20.80;;;14.10;;
76712;SDS011;65640;43.154;25.658;2023-03-23T04:58:52;21.13;;;14.75;;
76712;SDS011;65640;43.154;25.658;2023-03-23T05:01:17;24.83;;;15.55;;
76712;SDS011;65640;43.154;25.658;2023-03-23T05:03:43;24.27;;;17.05;;
76712;SDS011;65640;43.154;25.658;2023-03-23T05:06:09;25.02;;;16.33;;
76712;SDS011;65640;43.154;25.658;2023-03-23T05:08:35;27.05;;;17.20;;
76712;SDS011;65640;43.154;25.658;2023-03-23T05:11:03;30.60;;;20.20;;
76712;SDS011;65640;43.154;25.658;2023-03-23T05:18:21;25.73;;;16.52;;
76712;SDS011;65640;43.154;25.658;2023-03-23T05:20:47;27.88;;;17.67;;
76712;SDS011;65640;43.154;25.658;2023-03-23T05:28:07;25.67;;;15.85;;
76712;SDS011;65640;43.154;25.658;2023-03-23T05:30:37;26.40;;;15.70;;
76712;SDS011;65640;43.154;25.658;2023-03-23T05:33:03;24.48;;;15.45;;
76712;SDS011;65640;43.154;25.658;2023-03-23T05:35:29;26.63;;;16.38;;
76712;SDS011;65640;43.154;25.658;2023-03-23T05:37:55;29.17;;;15.48;;
76712;SDS011;65640;43.154;25.658;2023-03-23T05:40:22;27.52;;;16.02;;
76712;SDS011;65640;43.154;25.658;2023-03-23T05:42:48;27.17;;;16.15;;
76712;SDS011;65640;43.154;25.658;2023-03-23T05:45:14;29.63;;;17.20;;
76712;SDS011;65640;43.154;25.658;2023-03-23T05:47:40;25.08;;;16.52;;
76712;SDS011;65640;43.154;25.658;2023-03-23T05:50:06;23.80;;;15.70;;
76712;SDS011;65640;43.154;25.658;2023-03-23T05:52:33;23.52;;;15.77;;
76712;SDS011;65640;43.154;25.658;2023-03-23T05:55:00;27.98;;;16.65;;
76712;SDS011;65640;43.154;25.658;2023-03-23T05:57:26;21.58;;;15.30;;
76712;SDS011;65640;43.154;25.658;2023-03-23T05:59:51;26.00;;;15.07;;
76712;SDS011;65640;43.154;25.658;2023-03-23T06:02:17;23.25;;;14.77;;
76712;SDS011;65640;43.154;25.658;2023-03-23T06:04:43;28.70;;;18.40;;
76712;SDS011;65640;43.154;25.658;2023-03-23T06:07:08;27.35;;;16.55;;
76712;SDS011;65640;43.154;25.658;2023-03-23T06:09:39;25.70;;;16.35;;
76712;SDS011;65640;43.154;25.658;2023-03-23T06:12:05;25.08;;;16.17;;
76712;SDS011;65640;43.154;25.658;2023-03-23T06:14:31;26.85;;;16.85;;
76712;SDS011;65640;43.154;25.658;2023-03-23T06:16:57;25.00;;;15.38;;
76712;SDS011;65640;43.154;25.658;2023-03-23T06:19:22;26.23;;;16.00;;
76712;SDS011;65640;43.154;25.658;2023-03-23T06:21:48;23.65;;;16.88;;
76712;SDS011;65640;43.154;25.658;2023-03-23T06:24:13;26.02;;;16.17;;
76712;SDS011;65640;43.154;25.658;2023-03-23T06:26:39;21.55;;;14.57;;
76712;SDS011;65640;43.154;25.658;2023-03-23T06:29:09;23.20;;;14.45;;
76712;SDS011;65640;43.154;25.658;2023-03-23T06:31:41;22.33;;;13.70;;
76712;SDS011;65640;43.154;25.658;2023-03-23T06:34:09;27.83;;;14.95;;
76712;SDS011;65640;43.154;25.658;2023-03-23T06:36:36;23.63;;;14.80;;
76712;SDS011;65640;43.154;25.658;2023-03-23T06:41:32;24.80;;;16.02;;
76712;SDS011;65640;43.154;25.658;2023-03-23T06:43:58;27.33;;;15.43;;
76712;SDS011;65640;43.154;25.658;2023-03-23T06:46:24;23.48;;;14.60;;
76712;SDS011;65640;43.154;25.658;2023-03-23T06:48:49;21.63;;;14.23;;
76712;SDS011;65640;43.154;25.658;2023-03-23T06:51:16;23.38;;;14.52;;
76712;SDS011;65640;43.154;25.658;2023-03-23T06:53:42;27.25;;;14.85;;
76712;SDS011;65640;43.154;25.658;2023-03-23T06:56:08;25.88;;;14.82;;
76712;SDS011;65640;43.154;25.658;2023-03-23T06:58:33;23.70;;;14.77;;
76712;SDS011;65640;43.154;25.658;2023-03-23T07:00:59;23.48;;;13.18;;
76712;SDS011;65640;43.154;25.658;2023-03-23T07:03:26;19.85;;;12.63;;
76712;SDS011;65640;43.154;25.658;2023-03-23T07:05:52;15.75;;;11.13;;
76712;SDS011;65640;43.154;25.658;2023-03-23T07:08:19;18.00;;;12.50;;
76712;SDS011;65640;43.154;25.658;2023-03-23T07:10:46;18.00;;;12.13;;
76712;SDS011;65640;43.154;25.658;2023-03-23T07:13:12;19.25;;;12.68;;
76712;SDS011;65640;43.154;25.658;2023-03-23T07:15:38;16.48;;;12.20;;
76712;SDS011;65640;43.154;25.658;2023-03-23T07:18:04;16.15;;;11.75;;
76712;SDS011;65640;43.154;25.658;2023-03-23T07:20:30;17.30;;;10.45;;
76712;SDS011;65640;43.154;25.658;2023-03-23T07:22:56;15.63;;;12.27;;
76712;SDS011;65640;43.154;25.658;2023-03-23T07:25:22;15.70;;;10.45;;
76712;SDS011;65640;43.154;25.658;2023-03-23T07:27:47;14.30;;;11.20;;
76712;SDS011;65640;43.154;25.658;2023-03-23T07:30:13;15.73;;;11.02;;
76712;SDS011;65640;43.154;25.658;2023-03-23T07:32:40;15.57;;;11.00;;
76712;SDS011;65640;43.154;25.658;2023-03-23T07:35:05;16.20;;;11.38;;
76712;SDS011;65640;43.154;25.658;2023-03-23T07:37:32;15.20;;;11.13;;
76712;SDS011;65640;43.154;25.658;2023-03-23T07:39:57;15.50;;;11.63;;
76712;SDS011;65640;43.154;25.658;2023-03-23T07:42:23;18.88;;;11.77;;
76712;SDS011;65640;43.154;25.658;2023-03-23T07:44:48;17.08;;;12.25;;
76712;SDS011;65640;43.154;25.658;2023-03-23T07:47:14;15.52;;;12.05;;
76712;SDS011;65640;43.154;25.658;2023-03-23T07:49:40;15.82;;;11.88;;
76712;SDS011;65640;43.154;25.658;2023-03-23T07:52:06;14.57;;;10.75;;
76712;SDS011;65640;43.154;25.658;2023-03-23T07:54:32;14.95;;;10.70;;
76712;SDS011;65640;43.154;25.658;2023-03-23T07:56:58;15.95;;;11.85;;
76712;SDS011;65640;43.154;25.658;2023-03-23T07:59:23;15.48;;;11.05;;
76712;SDS011;65640;43.154;25.658;2023-03-23T08:01:48;15.30;;;11.30;;
76712;SDS011;65640;43.154;25.658;2023-03-23T08:04:14;17.88;;;10.88;;
76712;SDS011;65640;43.154;25.658;2023-03-23T08:06:40;13.07;;;9.40;;
76712;SDS011;65640;43.154;25.658;2023-03-23T08:09:05;11.57;;;9.93;;
76712;SDS011;65640;43.154;25.658;2023-03-23T08:11:34;13.25;;;10.13;;
76712;SDS011;65640;43.154;25.658;2023-03-23T08:14:00;10.32;;;9.25;;
76712;SDS011;65640;43.154;25.658;2023-03-23T08:16:25;11.55;;;9.32;;
76712;SDS011;65640;43.154;25.658;2023-03-23T08:18:51;13.27;;;10.52;;
76712;SDS011;65640;43.154;25.658;2023-03-23T08:21:17;13.18;;;9.68;;
76712;SDS011;65640;43.154;25.658;2023-03-23T08:23:42;11.95;;;10.32;;
76712;SDS011;65640;43.154;25.658;2023-03-23T08:26:08;12.35;;;9.38;;
76712;SDS011;65640;43.154;25.658;2023-03-23T08:28:35;9.60;;;8.00;;
76712;SDS011;65640;43.154;25.658;2023-03-23T08:31:08;8.63;;;7.63;;
76712;SDS011;65640;43.154;25.658;2023-03-23T08:33:36;10.43;;;7.55;;
76712;SDS011;65640;43.154;25.658;2023-03-23T08:36:02;10.25;;;8.63;;
76712;SDS011;65640;43.154;25.658;2023-03-23T08:38:28;12.93;;;9.20;;
76712;SDS011;65640;43.154;25.658;2023-03-23T08:40:58;10.48;;;8.40;;
76712;SDS011;65640;43.154;25.658;2023-03-23T08:43:25;9.65;;;7.82;;
76712;SDS011;65640;43.154;25.658;2023-03-23T08:45:51;12.27;;;9.85;;
76712;SDS011;65640;43.154;25.658;2023-03-23T08:48:17;10.73;;;8.52;;
76712;SDS011;65640;43.154;25.658;2023-03-23T08:50:42;10.45;;;8.40;;
76712;SDS011;65640;43.154;25.658;2023-03-23T08:53:08;8.93;;;8.02;;
76712;SDS011;65640;43.154;25.658;2023-03-23T08:55:34;13.00;;;8.68;;
76712;SDS011;65640;43.154;25.658;2023-03-23T08:57:59;10.23;;;8.35;;
76712;SDS011;65640;43.154;25.658;2023-03-23T09:00:25;9.55;;;7.65;;
76712;SDS011;65640;43.154;25.658;2023-03-23T09:02:53;12.27;;;9.25;;
76712;SDS011;65640;43.154;25.658;2023-03-23T09:05:20;8.88;;;7.75;;
76712;SDS011;65640;43.154;25.658;2023-03-23T09:07:50;11.38;;;8.10;;
76712;SDS011;65640;43.154;25.658;2023-03-23T09:10:16;8.52;;;7.32;;
76712;SDS011;65640;43.154;25.658;2023-03-23T09:12:43;9.73;;;8.45;;
76712;SDS011;65640;43.154;25.658;2023-03-23T09:15:11;10.75;;;7.95;;
76712;SDS011;65640;43.154;25.658;2023-03-23T09:17:39;10.88;;;7.82;;
76712;SDS011;65640;43.154;25.658;2023-03-23T09:20:07;9.30;;;8.35;;
76712;SDS011;65640;43.154;25.658;2023-03-23T09:22:38;9.48;;;6.45;;
76712;SDS011;65640;43.154;25.658;2023-03-23T09:25:05;7.28;;;5.82;;
76712;SDS011;65640;43.154;25.658;2023-03-23T09:27:32;6.13;;;5.53;;
76712;SDS011;65640;43.154;25.658;2023-03-23T09:29:58;7.40;;;6.70;;
76712;SDS011;65640;43.154;25.658;2023-03-23T09:32:25;6.43;;;5.72;;
76712;SDS011;65640;43.154;25.658;2023-03-23T09:34:51;7.00;;;5.57;;
76712;SDS011;65640;43.154;25.658;2023-03-23T09:37:20;8.07;;;6.15;;
76712;SDS011;65640;43.154;25.658;2023-03-23T09:39:45;7.63;;;6.03;;
76712;SDS011;65640;43.154;25.658;2023-03-23T09:42:13;6.95;;;6.35;;
76712;SDS011;65640;43.154;25.658;2023-03-23T09:50:17;6.60;;;5.45;;
76712;SDS011;65640;43.154;25.658;2023-03-23T09:52:58;8.82;;;5.55;;
76712;SDS011;65640;43.154;25.658;2023-03-23T09:55:27;6.75;;;5.85;;
76712;SDS011;65640;43.154;25.658;2023-03-23T09:58:01;7.95;;;6.22;;
76712;SDS011;65640;43.154;25.658;2023-03-23T10:00:39;6.07;;;5.45;;
76712;SDS011;65640;43.154;25.658;2023-03-23T10:08:15;5.97;;;5.47;;
76712;SDS011;65640;43.154;25.658;2023-03-23T10:16:03;5.07;;;4.35;;
76712;SDS011;65640;43.154;25.658;2023-03-23T10:18:37;5.43;;;4.88;;
76712;SDS011;65640;43.154;25.658;2023-03-23T10:21:18;5.40;;;4.90;;
76712;SDS011;65640;43.154;25.658;2023-03-23T10:28:51;5.85;;;5.20;;
76712;SDS011;65640;43.154;25.658;2023-03-23T10:31:21;6.10;;;5.50;;
76712;SDS011;65640;43.154;25.658;2023-03-23T10:33:50;4.85;;;4.45;;
76712;SDS011;65640;43.154;25.658;2023-03-23T10:38:48;5.20;;;4.70;;
76712;SDS011;65640;43.154;25.658;2023-03-23T10:41:19;7.65;;;5.38;;
76712;SDS011;65640;43.154;25.658;2023-03-23T10:43:46;6.50;;;5.13;;
76712;SDS011;65640;43.154;25.658;2023-03-23T10:49:27;6.07;;;5.38;;
76712;SDS011;65640;43.154;25.658;2023-03-23T10:55:35;6.30;;;5.80;;
76712;SDS011;65640;43.154;25.658;2023-03-23T10:57:43;6.03;;;5.40;;
76712;SDS011;65640;43.154;25.658;2023-03-23T11:02:40;6.63;;;6.00;;
76712;SDS011;65640;43.154;25.658;2023-03-23T11:05:53;7.13;;;5.55;;
76712;SDS011;65640;43.154;25.658;2023-03-23T11:08:10;6.72;;;6.15;;
76712;SDS011;65640;43.154;25.658;2023-03-23T11:10:41;6.53;;;5.70;;
76712;SDS011;65640;43.154;25.658;2023-03-23T11:13:14;6.50;;;5.90;;
76712;SDS011;65640;43.154;25.658;2023-03-23T11:15:42;7.32;;;6.10;;
76712;SDS011;65640;43.154;25.658;2023-03-23T11:18:21;9.38;;;6.93;;
76712;SDS011;65640;43.154;25.658;2023-03-23T11:20:57;6.43;;;5.35;;
76712;SDS011;65640;43.154;25.658;2023-03-23T11:23:33;6.55;;;5.90;;
76712;SDS011;65640;43.154;25.658;2023-03-23T11:31:44;6.05;;;5.40;;
76712;SDS011;65640;43.154;25.658;2023-03-23T11:34:24;7.32;;;5.70;;
76712;SDS011;65640;43.154;25.658;2023-03-23T11:37:02;10.35;;;6.30;;
76712;SDS011;65640;43.154;25.658;2023-03-23T11:39:46;7.32;;;6.57;;
76712;SDS011;65640;43.154;25.658;2023-03-23T11:43:08;6.72;;;6.13;;
76712;SDS011;65640;43.154;25.658;2023-03-23T11:45:22;6.97;;;6.10;;
76712;SDS011;65640;43.154;25.658;2023-03-23T11:59:02;6.70;;;5.88;;
76712;SDS011;65640;43.154;25.658;2023-03-23T12:01:46;7.35;;;6.05;;
76712;SDS011;65640;43.154;25.658;2023-03-23T12:23:03;7.30;;;5.80;;
76712;SDS011;65640;43.154;25.658;2023-03-23T12:44:28;7.32;;;6.10;;
76712;SDS011;65640;43.154;25.658;2023-03-23T12:57:18;9.85;;;6.72;;
76712;SDS011;65640;43.154;25.658;2023-03-23T12:59:57;6.40;;;5.78;;
76712;SDS011;65640;43.154;25.658;2023-03-23T13:02:51;6.28;;;5.68;;
76712;SDS011;65640;43.154;25.658;2023-03-23T13:07:48;6.90;;;6.30;;
76712;SDS011;65640;43.154;25.658;2023-03-23T13:12:47;6.80;;;6.15;;
76712;SDS011;65640;43.154;25.658;2023-03-23T13:17:55;6.97;;;6.40;;
76712;SDS011;65640;43.154;25.658;2023-03-23T13:21:10;8.02;;;6.45;;
76712;SDS011;65640;43.154;25.658;2023-03-23T13:26:00;9.90;;;5.88;;
76712;SDS011;65640;43.154;25.658;2023-03-23T13:28:32;9.85;;;8.27;;
76712;SDS011;65640;43.154;25.658;2023-03-23T13:31:26;9.20;;;6.20;;
76712;SDS011;65640;43.154;25.658;2023-03-23T13:34:20;6.28;;;5.55;;
76712;SDS011;65640;43.154;25.658;2023-03-23T13:37:22;8.68;;;5.53;;
76712;SDS011;65640;43.154;25.658;2023-03-23T13:47:16;14.93;;;6.55;;
76712;SDS011;65640;43.154;25.658;2023-03-23T13:50:31;8.02;;;6.25;;
76712;SDS011;65640;43.154;25.658;2023-03-23T13:57:55;6.75;;;6.22;;
76712;SDS011;65640;43.154;25.658;2023-03-23T14:10:39;7.53;;;6.45;;
76712;SDS011;65640;43.154;25.658;2023-03-23T14:13:20;12.48;;;10.15;;
76712;SDS011;65640;43.154;25.658;2023-03-23T14:18:26;8.50;;;6.45;;
76712;SDS011;65640;43.154;25.658;2023-03-23T14:20:57;9.95;;;9.02;;
76712;SDS011;65640;43.154;25.658;2023-03-23T14:23:23;9.23;;;7.65;;
76712;SDS011;65640;43.154;25.658;2023-03-23T14:25:55;8.52;;;6.88;;
76712;SDS011;65640;43.154;25.658;2023-03-23T14:28:30;9.90;;;7.10;;
76712;SDS011;65640;43.154;25.658;2023-03-23T14:30:57;13.32;;;10.70;;
76712;SDS011;65640;43.154;25.658;2023-03-23T14:33:24;9.50;;;8.52;;
76712;SDS011;65640;43.154;25.658;2023-03-23T14:35:52;10.82;;;7.13;;
76712;SDS011;65640;43.154;25.658;2023-03-23T14:38:19;9.05;;;6.75;;
76712;SDS011;65640;43.154;25.658;2023-03-23T14:40:48;8.75;;;7.60;;
76712;SDS011;65640;43.154;25.658;2023-03-23T14:43:15;20.38;;;10.27;;
76712;SDS011;65640;43.154;25.658;2023-03-23T14:45:42;11.55;;;8.23;;
76712;SDS011;65640;43.154;25.658;2023-03-23T14:48:08;9.75;;;8.75;;
76712;SDS011;65640;43.154;25.658;2023-03-23T14:50:39;12.93;;;8.88;;
76712;SDS011;65640;43.154;25.658;2023-03-23T14:53:13;7.13;;;6.40;;
76712;SDS011;65640;43.154;25.658;2023-03-23T14:55:45;10.60;;;8.52;;
76712;SDS011;65640;43.154;25.658;2023-03-23T14:58:13;12.73;;;7.82;;
76712;SDS011;65640;43.154;25.658;2023-03-23T15:00:42;7.25;;;6.47;;
76712;SDS011;65640;43.154;25.658;2023-03-23T15:03:12;6.97;;;6.28;;
76712;SDS011;65640;43.154;25.658;2023-03-23T15:05:43;7.75;;;7.07;;
76712;SDS011;65640;43.154;25.658;2023-03-23T15:08:17;9.40;;;7.25;;
76712;SDS011;65640;43.154;25.658;2023-03-23T15:13:49;8.70;;;6.78;;
76712;SDS011;65640;43.154;25.658;2023-03-23T15:16:20;8.40;;;7.38;;
76712;SDS011;65640;43.154;25.658;2023-03-23T15:19:10;7.90;;;5.95;;
76712;SDS011;65640;43.154;25.658;2023-03-23T15:22:03;14.88;;;6.93;;
76712;SDS011;65640;43.154;25.658;2023-03-23T15:24:32;8.43;;;7.13;;
76712;SDS011;65640;43.154;25.658;2023-03-23T15:27:04;12.95;;;8.55;;
76712;SDS011;65640;43.154;25.658;2023-03-23T15:29:48;13.57;;;9.30;;
76712;SDS011;65640;43.154;25.658;2023-03-23T15:32:20;11.82;;;7.65;;
76712;SDS011;65640;43.154;25.658;2023-03-23T15:34:47;9.30;;;6.53;;
76712;SDS011;65640;43.154;25.658;2023-03-23T15:37:17;12.80;;;9.20;;
76712;SDS011;65640;43.154;25.658;2023-03-23T15:39:46;8.00;;;7.15;;
76712;SDS011;65640;43.154;25.658;2023-03-23T15:42:22;10.52;;;8.02;;
76712;SDS011;65640;43.154;25.658;2023-03-23T15:45:15;13.98;;;8.68;;
76712;SDS011;65640;43.154;25.658;2023-03-23T15:47:46;10.90;;;8.15;;
76712;SDS011;65640;43.154;25.658;2023-03-23T15:50:20;12.30;;;8.68;;
76712;SDS011;65640;43.154;25.658;2023-03-23T15:52:58;13.02;;;9.95;;
76712;SDS011;65640;43.154;25.658;2023-03-23T15:55:29;12.60;;;9.00;;
76712;SDS011;65640;43.154;25.658;2023-03-23T15:58:00;13.77;;;9.07;;
76712;SDS011;65640;43.154;25.658;2023-03-23T16:00:29;12.90;;;9.38;;
76712;SDS011;65640;43.154;25.658;2023-03-23T16:02:56;17.23;;;10.15;;
76712;SDS011;65640;43.154;25.658;2023-03-23T16:05:24;20.95;;;11.60;;
76712;SDS011;65640;43.154;25.658;2023-03-23T16:07:51;30.02;;;17.65;;
76712;SDS011;65640;43.154;25.658;2023-03-23T16:10:17;29.60;;;15.27;;
76712;SDS011;65640;43.154;25.658;2023-03-23T16:12:44;26.13;;;14.57;;
76712;SDS011;65640;43.154;25.658;2023-03-23T16:15:10;31.65;;;17.38;;
76712;SDS011;65640;43.154;25.658;2023-03-23T16:17:37;46.25;;;23.05;;
76712;SDS011;65640;43.154;25.658;2023-03-23T16:20:08;32.65;;;18.83;;
76712;SDS011;65640;43.154;25.658;2023-03-23T16:22:45;22.63;;;14.30;;
76712;SDS011;65640;43.154;25.658;2023-03-23T16:25:11;20.77;;;13.82;;
76712;SDS011;65640;43.154;25.658;2023-03-23T16:27:38;29.70;;;14.43;;
76712;SDS011;65640;43.154;25.658;2023-03-23T16:30:15;32.47;;;17.35;;
76712;SDS011;65640;43.154;25.658;2023-03-23T16:32:42;35.97;;;19.25;;
76712;SDS011;65640;43.154;25.658;2023-03-23T16:35:08;35.33;;;20.00;;
76712;SDS011;65640;43.154;25.658;2023-03-23T16:37:34;36.10;;;21.60;;
76712;SDS011;65640;43.154;25.658;2023-03-23T16:40:00;34.28;;;18.20;;
76712;SDS011;65640;43.154;25.658;2023-03-23T16:44:52;50.35;;;23.10;;
76712;SDS011;65640;43.154;25.658;2023-03-23T16:47:18;59.90;;;26.30;;
76712;SDS011;65640;43.154;25.658;2023-03-23T16:49:47;51.97;;;25.17;;
76712;SDS011;65640;43.154;25.658;2023-03-23T16:52:13;50.15;;;24.75;;
76712;SDS011;65640;43.154;25.658;2023-03-23T16:54:38;54.60;;;23.83;;
76712;SDS011;65640;43.154;25.658;2023-03-23T16:57:03;41.75;;;20.08;;
76712;SDS011;65640;43.154;25.658;2023-03-23T16:59:30;27.38;;;14.45;;
76712;SDS011;65640;43.154;25.658;2023-03-23T17:01:55;22.42;;;14.00;;
76712;SDS011;65640;43.154;25.658;2023-03-23T17:04:27;19.23;;;11.00;;
76712;SDS011;65640;43.154;25.658;2023-03-23T17:06:53;11.30;;;9.43;;
76712;SDS011;65640;43.154;25.658;2023-03-23T17:09:18;13.32;;;10.32;;
76712;SDS011;65640;43.154;25.658;2023-03-23T17:11:43;19.48;;;11.88;;
76712;SDS011;65640;43.154;25.658;2023-03-23T17:14:09;17.27;;;11.65;;
76712;SDS011;65640;43.154;25.658;2023-03-23T17:16:34;40.88;;;23.58;;
76712;SDS011;65640;43.154;25.658;2023-03-23T17:19:00;45.10;;;25.08;;
76712;SDS011;65640;43.154;25.658;2023-03-23T17:21:26;31.95;;;19.42;;
76712;SDS011;65640;43.154;25.658;2023-03-23T17:23:51;31.52;;;18.67;;
76712;SDS011;65640;43.154;25.658;2023-03-23T17:26:18;26.02;;;17.60;;
76712;SDS011;65640;43.154;25.658;2023-03-23T17:28:43;35.70;;;21.55;;